sensor_id;sensor_type;location;lat;lon;timestamp;temperature;humidity
44117;DHT22;29781;49.480;8.512;2023-06-04T00:00:29;17.50;90.30
44117;DHT22;29781;49.480;8.512;2023-06-04T00:02:55;17.50;90.40
44117;DHT22;29781;49.480;8.512;2023-06-04T00:05:20;17.50;89.20
44117;DHT22;29781;49.480;8.512;2023-06-04T00:07:47;17.50;89.90
44117;DHT22;29781;49.480;8.512;2023-06-04T00:10:13;17.40;89.70
44117;DHT22;29781;49.480;8.512;2023-06-04T00:12:38;17.50;89.80
44117;DHT22;29781;49.480;8.512;2023-06-04T00:15:04;17.50;90.10
44117;DHT22;29781;49.480;8.512;2023-06-04T00:17:30;17.60;90.20
44117;DHT22;29781;49.480;8.512;2023-06-04T00:19:56;17.80;90.00
44117;DHT22;29781;49.480;8.512;2023-06-04T00:22:21;17.90;90.10
44117;DHT22;29781;49.480;8.512;2023-06-04T00:24:47;18.00;89.70
44117;DHT22;29781;49.480;8.512;2023-06-04T00:27:12;18.10;90.10
44117;DHT22;29781;49.480;8.512;2023-06-04T00:29:38;18.20;90.20
44117;DHT22;29781;49.480;8.512;2023-06-04T00:32:03;18.20;90.30
44117;DHT22;29781;49.480;8.512;2023-06-04T00:34:29;18.10;90.30
44117;DHT22;29781;49.480;8.512;2023-06-04T00:36:55;18.10;90.20
44117;DHT22;29781;49.480;8.512;2023-06-04T00:39:21;18.10;90.10
44117;DHT22;29781;49.480;8.512;2023-06-04T00:41:46;18.20;89.70
44117;DHT22;29781;49.480;8.512;2023-06-04T00:44:12;18.20;89.00
44117;DHT22;29781;49.480;8.512;2023-06-04T00:46:37;17.90;89.50
44117;DHT22;29781;49.480;8.512;2023-06-04T00:49:04;17.90;88.70
44117;DHT22;29781;49.480;8.512;2023-06-04T00:51:31;17.70;88.00
44117;DHT22;29781;49.480;8.512;2023-06-04T00:53:58;17.50;88.90
44117;DHT22;29781;49.480;8.512;2023-06-04T00:56:24;17.30;89.10
44117;DHT22;29781;49.480;8.512;2023-06-04T00:58:49;17.20;89.20
44117;DHT22;29781;49.480;8.512;2023-06-04T01:01:31;17.10;90.10
44117;DHT22;29781;49.480;8.512;2023-06-04T01:04:01;17.00;90.40
44117;DHT22;29781;49.480;8.512;2023-06-04T01:06:39;16.90;90.70
44117;DHT22;29781;49.480;8.512;2023-06-04T01:09:07;17.00;90.90
44117;DHT22;29781;49.480;8.512;2023-06-04T01:11:36;17.00;91.00
44117;DHT22;29781;49.480;8.512;2023-06-04T01:14:06;17.20;90.90
44117;DHT22;29781;49.480;8.512;2023-06-04T01:16:47;17.20;90.80
44117;DHT22;29781;49.480;8.512;2023-06-04T01:25:05;17.30;91.40
44117;DHT22;29781;49.480;8.512;2023-06-04T01:27:31;17.40;91.40
44117;DHT22;29781;49.480;8.512;2023-06-04T01:29:58;17.30;91.10
44117;DHT22;29781;49.480;8.512;2023-06-04T01:32:25;17.40;90.30
44117;DHT22;29781;49.480;8.512;2023-06-04T01:34:51;17.30;90.30
44117;DHT22;29781;49.480;8.512;2023-06-04T01:37:17;17.10;90.30
44117;DHT22;29781;49.480;8.512;2023-06-04T01:39:43;17.20;90.50
44117;DHT22;29781;49.480;8.512;2023-06-04T01:42:09;17.20;90.40
44117;DHT22;29781;49.480;8.512;2023-06-04T01:44:35;17.20;90.50
44117;DHT22;29781;49.480;8.512;2023-06-04T01:47:00;17.30;90.10
44117;DHT22;29781;49.480;8.512;2023-06-04T01:49:26;17.30;90.40
44117;DHT22;29781;49.480;8.512;2023-06-04T01:51:52;17.30;90.60
44117;DHT22;29781;49.480;8.512;2023-06-04T01:54:18;17.30;90.80
44117;DHT22;29781;49.480;8.512;2023-06-04T01:56:43;17.40;91.20
44117;DHT22;29781;49.480;8.512;2023-06-04T01:59:09;17.50;91.30
44117;DHT22;29781;49.480;8.512;2023-06-04T02:01:37;17.70;91.30
44117;DHT22;29781;49.480;8.512;2023-06-04T02:04:03;17.40;91.50
44117;DHT22;29781;49.480;8.512;2023-06-04T02:06:28;17.30;91.50
44117;DHT22;29781;49.480;8.512;2023-06-04T02:08:55;16.70;92.10
44117;DHT22;29781;49.480;8.512;2023-06-04T02:11:20;16.30;92.90
44117;DHT22;29781;49.480;8.512;2023-06-04T02:13:46;16.00;93.40
44117;DHT22;29781;49.480;8.512;2023-06-04T02:16:11;15.90;93.80
44117;DHT22;29781;49.480;8.512;2023-06-04T02:18:37;15.80;93.80
44117;DHT22;29781;49.480;8.512;2023-06-04T02:21:03;15.60;94.10
44117;DHT22;29781;49.480;8.512;2023-06-04T02:23:28;15.70;94.20
44117;DHT22;29781;49.480;8.512;2023-06-04T02:25:54;15.70;94.30
44117;DHT22;29781;49.480;8.512;2023-06-04T02:28:20;15.70;94.40
44117;DHT22;29781;49.480;8.512;2023-06-04T02:30:46;15.80;94.30
44117;DHT22;29781;49.480;8.512;2023-06-04T02:33:12;15.80;94.30
44117;DHT22;29781;49.480;8.512;2023-06-04T02:35:38;16.00;94.10
44117;DHT22;29781;49.480;8.512;2023-06-04T02:38:04;15.80;94.20
44117;DHT22;29781;49.480;8.512;2023-06-04T02:40:30;16.00;94.00
44117;DHT22;29781;49.480;8.512;2023-06-04T02:42:56;16.00;94.00
44117;DHT22;29781;49.480;8.512;2023-06-04T02:45:22;16.10;94.00
44117;DHT22;29781;49.480;8.512;2023-06-04T02:47:48;16.00;94.20
44117;DHT22;29781;49.480;8.512;2023-06-04T02:50:14;16.10;94.20
44117;DHT22;29781;49.480;8.512;2023-06-04T02:52:43;15.90;94.40
44117;DHT22;29781;49.480;8.512;2023-06-04T02:55:09;15.90;94.50
44117;DHT22;29781;49.480;8.512;2023-06-04T02:57:38;15.90;94.20
44117;DHT22;29781;49.480;8.512;2023-06-04T03:00:04;15.90;94.20
44117;DHT22;29781;49.480;8.512;2023-06-04T03:02:44;15.70;94.30
44117;DHT22;29781;49.480;8.512;2023-06-04T03:05:11;15.60;94.40
44117;DHT22;29781;49.480;8.512;2023-06-04T03:07:38;15.70;94.70
44117;DHT22;29781;49.480;8.512;2023-06-04T03:10:04;15.60;94.50
44117;DHT22;29781;49.480;8.512;2023-06-04T03:12:29;15.60;94.50
44117;DHT22;29781;49.480;8.512;2023-06-04T03:14:55;15.60;94.70
44117;DHT22;29781;49.480;8.512;2023-06-04T03:17:21;15.50;94.70
44117;DHT22;29781;49.480;8.512;2023-06-04T03:19:47;15.70;94.20
44117;DHT22;29781;49.480;8.512;2023-06-04T03:22:13;15.90;93.60
44117;DHT22;29781;49.480;8.512;2023-06-04T03:24:41;15.90;93.50
44117;DHT22;29781;49.480;8.512;2023-06-04T03:27:07;16.20;93.40
44117;DHT22;29781;49.480;8.512;2023-06-04T03:29:34;16.00;93.40
44117;DHT22;29781;49.480;8.512;2023-06-04T03:32:00;15.80;93.90
44117;DHT22;29781;49.480;8.512;2023-06-04T03:34:26;16.00;93.60
44117;DHT22;29781;49.480;8.512;2023-06-04T03:36:55;16.00;93.70
44117;DHT22;29781;49.480;8.512;2023-06-04T03:39:21;15.90;93.90
44117;DHT22;29781;49.480;8.512;2023-06-04T03:41:47;15.80;94.00
44117;DHT22;29781;49.480;8.512;2023-06-04T03:44:13;15.90;93.80
44117;DHT22;29781;49.480;8.512;2023-06-04T03:46:40;15.80;93.70
44117;DHT22;29781;49.480;8.512;2023-06-04T03:49:06;15.50;93.60
44117;DHT22;29781;49.480;8.512;2023-06-04T03:51:31;15.40;93.90
44117;DHT22;29781;49.480;8.512;2023-06-04T03:53:58;15.40;94.00
44117;DHT22;29781;49.480;8.512;2023-06-04T03:56:24;15.30;93.60
44117;DHT22;29781;49.480;8.512;2023-06-04T03:58:52;15.50;93.40
44117;DHT22;29781;49.480;8.512;2023-06-04T04:01:18;15.30;93.80
44117;DHT22;29781;49.480;8.512;2023-06-04T04:03:43;15.20;94.10
44117;DHT22;29781;49.480;8.512;2023-06-04T04:06:14;15.00;94.70
44117;DHT22;29781;49.480;8.512;2023-06-04T04:08:40;15.10;94.10
44117;DHT22;29781;49.480;8.512;2023-06-04T04:11:07;15.30;93.70
44117;DHT22;29781;49.480;8.512;2023-06-04T04:13:33;15.20;93.80
44117;DHT22;29781;49.480;8.512;2023-06-04T04:15:59;15.00;94.10
44117;DHT22;29781;49.480;8.512;2023-06-04T04:18:24;15.10;94.00
44117;DHT22;29781;49.480;8.512;2023-06-04T04:20:50;15.10;94.20
44117;DHT22;29781;49.480;8.512;2023-06-04T04:23:15;15.00;94.30
44117;DHT22;29781;49.480;8.512;2023-06-04T04:25:45;14.80;94.50
44117;DHT22;29781;49.480;8.512;2023-06-04T04:28:11;15.00;94.10
44117;DHT22;29781;49.480;8.512;2023-06-04T04:30:37;15.20;93.90
44117;DHT22;29781;49.480;8.512;2023-06-04T04:33:03;15.30;93.70
44117;DHT22;29781;49.480;8.512;2023-06-04T04:35:30;15.60;93.30
44117;DHT22;29781;49.480;8.512;2023-06-04T04:37:58;15.70;93.00
44117;DHT22;29781;49.480;8.512;2023-06-04T04:40:24;15.80;93.30
44117;DHT22;29781;49.480;8.512;2023-06-04T04:42:49;16.00;93.10
44117;DHT22;29781;49.480;8.512;2023-06-04T04:45:15;16.10;92.70
44117;DHT22;29781;49.480;8.512;2023-06-04T04:47:42;15.90;93.20
44117;DHT22;29781;49.480;8.512;2023-06-04T04:50:08;16.10;92.80
44117;DHT22;29781;49.480;8.512;2023-06-04T04:52:33;16.10;93.00
44117;DHT22;29781;49.480;8.512;2023-06-04T04:54:59;16.20;92.90
44117;DHT22;29781;49.480;8.512;2023-06-04T04:57:24;16.30;92.70
44117;DHT22;29781;49.480;8.512;2023-06-04T04:59:50;16.10;92.90
44117;DHT22;29781;49.480;8.512;2023-06-04T05:02:15;16.00;93.60
44117;DHT22;29781;49.480;8.512;2023-06-04T05:04:41;16.00;93.20
44117;DHT22;29781;49.480;8.512;2023-06-04T05:07:07;15.90;93.30
44117;DHT22;29781;49.480;8.512;2023-06-04T05:09:32;15.70;93.80
44117;DHT22;29781;49.480;8.512;2023-06-04T05:11:58;15.60;94.00
44117;DHT22;29781;49.480;8.512;2023-06-04T05:14:23;15.80;93.60
44117;DHT22;29781;49.480;8.512;2023-06-04T05:16:49;15.80;93.40
44117;DHT22;29781;49.480;8.512;2023-06-04T05:19:16;15.70;93.80
44117;DHT22;29781;49.480;8.512;2023-06-04T05:21:42;15.80;93.20
44117;DHT22;29781;49.480;8.512;2023-06-04T05:24:09;16.00;93.20
44117;DHT22;29781;49.480;8.512;2023-06-04T05:26:35;16.10;93.30
44117;DHT22;29781;49.480;8.512;2023-06-04T05:29:00;16.50;93.00
44117;DHT22;29781;49.480;8.512;2023-06-04T05:31:27;17.10;92.40
44117;DHT22;29781;49.480;8.512;2023-06-04T05:33:52;17.40;91.90
44117;DHT22;29781;49.480;8.512;2023-06-04T05:36:19;17.40;92.10
44117;DHT22;29781;49.480;8.512;2023-06-04T05:38:45;17.50;92.20
44117;DHT22;29781;49.480;8.512;2023-06-04T05:41:10;17.70;91.70
44117;DHT22;29781;49.480;8.512;2023-06-04T05:43:37;17.80;91.50
44117;DHT22;29781;49.480;8.512;2023-06-04T05:46:03;17.70;91.70
44117;DHT22;29781;49.480;8.512;2023-06-04T05:48:28;17.60;91.60
44117;DHT22;29781;49.480;8.512;2023-06-04T05:50:54;17.50;91.90
44117;DHT22;29781;49.480;8.512;2023-06-04T05:53:19;17.40;91.90
44117;DHT22;29781;49.480;8.512;2023-06-04T05:55:45;17.30;92.20
44117;DHT22;29781;49.480;8.512;2023-06-04T05:58:10;17.10;92.40
44117;DHT22;29781;49.480;8.512;2023-06-04T06:00:36;17.10;92.30
44117;DHT22;29781;49.480;8.512;2023-06-04T06:03:01;17.10;92.70
44117;DHT22;29781;49.480;8.512;2023-06-04T06:05:27;17.30;92.00
44117;DHT22;29781;49.480;8.512;2023-06-04T06:07:52;17.20;91.60
44117;DHT22;29781;49.480;8.512;2023-06-04T06:10:18;17.10;92.60
44117;DHT22;29781;49.480;8.512;2023-06-04T06:12:44;17.10;92.10
44117;DHT22;29781;49.480;8.512;2023-06-04T06:15:10;16.80;91.30
44117;DHT22;29781;49.480;8.512;2023-06-04T06:17:38;16.90;92.60
44117;DHT22;29781;49.480;8.512;2023-06-04T06:20:03;17.00;91.70
44117;DHT22;29781;49.480;8.512;2023-06-04T06:22:33;17.00;91.10
44117;DHT22;29781;49.480;8.512;2023-06-04T06:24:59;17.00;91.40
44117;DHT22;29781;49.480;8.512;2023-06-04T06:27:25;17.10;91.30
44117;DHT22;29781;49.480;8.512;2023-06-04T06:29:50;17.00;91.60
44117;DHT22;29781;49.480;8.512;2023-06-04T06:32:16;17.10;92.00
44117;DHT22;29781;49.480;8.512;2023-06-04T06:34:41;17.40;91.60
44117;DHT22;29781;49.480;8.512;2023-06-04T06:37:07;17.60;91.20
44117;DHT22;29781;49.480;8.512;2023-06-04T06:39:33;17.60;90.30
44117;DHT22;29781;49.480;8.512;2023-06-04T06:41:58;17.60;90.80
44117;DHT22;29781;49.480;8.512;2023-06-04T06:44:24;17.60;90.90
44117;DHT22;29781;49.480;8.512;2023-06-04T06:46:49;17.80;91.00
44117;DHT22;29781;49.480;8.512;2023-06-04T06:49:15;18.00;90.70
44117;DHT22;29781;49.480;8.512;2023-06-04T06:51:41;18.30;90.70
44117;DHT22;29781;49.480;8.512;2023-06-04T06:54:09;18.40;89.40
44117;DHT22;29781;49.480;8.512;2023-06-04T06:56:35;18.20;89.40
44117;DHT22;29781;49.480;8.512;2023-06-04T06:59:00;18.10;90.40
44117;DHT22;29781;49.480;8.512;2023-06-04T07:01:26;18.00;90.70
44117;DHT22;29781;49.480;8.512;2023-06-04T07:03:53;18.10;90.90
44117;DHT22;29781;49.480;8.512;2023-06-04T07:06:18;18.30;90.80
44117;DHT22;29781;49.480;8.512;2023-06-04T07:08:44;18.40;90.30
44117;DHT22;29781;49.480;8.512;2023-06-04T07:11:09;18.70;90.70
44117;DHT22;29781;49.480;8.512;2023-06-04T07:13:38;19.00;90.50
44117;DHT22;29781;49.480;8.512;2023-06-04T07:16:03;19.10;88.00
44117;DHT22;29781;49.480;8.512;2023-06-04T07:18:29;19.30;89.30
44117;DHT22;29781;49.480;8.512;2023-06-04T07:20:55;19.30;90.20
44117;DHT22;29781;49.480;8.512;2023-06-04T07:23:20;19.20;90.20
44117;DHT22;29781;49.480;8.512;2023-06-04T07:25:46;19.20;88.40
44117;DHT22;29781;49.480;8.512;2023-06-04T07:28:12;19.10;89.30
44117;DHT22;29781;49.480;8.512;2023-06-04T07:30:38;19.00;89.40
44117;DHT22;29781;49.480;8.512;2023-06-04T07:33:03;19.00;87.50
44117;DHT22;29781;49.480;8.512;2023-06-04T07:35:29;19.10;88.70
44117;DHT22;29781;49.480;8.512;2023-06-04T07:37:54;19.10;87.90
44117;DHT22;29781;49.480;8.512;2023-06-04T07:40:20;19.10;88.70
44117;DHT22;29781;49.480;8.512;2023-06-04T07:42:46;19.40;88.80
44117;DHT22;29781;49.480;8.512;2023-06-04T07:45:15;19.60;86.40
44117;DHT22;29781;49.480;8.512;2023-06-04T07:47:41;19.50;88.20
44117;DHT22;29781;49.480;8.512;2023-06-04T07:50:07;19.60;89.20
44117;DHT22;29781;49.480;8.512;2023-06-04T07:52:33;19.60;88.50
44117;DHT22;29781;49.480;8.512;2023-06-04T07:54:59;19.60;88.30
44117;DHT22;29781;49.480;8.512;2023-06-04T07:57:25;19.70;88.90
44117;DHT22;29781;49.480;8.512;2023-06-04T07:59:51;19.80;89.20
44117;DHT22;29781;49.480;8.512;2023-06-04T08:02:17;19.90;88.50
44117;DHT22;29781;49.480;8.512;2023-06-04T08:04:42;20.30;87.90
44117;DHT22;29781;49.480;8.512;2023-06-04T08:07:08;20.30;86.30
44117;DHT22;29781;49.480;8.512;2023-06-04T08:09:34;20.20;87.00
44117;DHT22;29781;49.480;8.512;2023-06-04T08:12:00;19.80;86.70
44117;DHT22;29781;49.480;8.512;2023-06-04T08:14:25;19.90;88.40
44117;DHT22;29781;49.480;8.512;2023-06-04T08:16:53;20.00;87.90
44117;DHT22;29781;49.480;8.512;2023-06-04T08:19:19;20.20;88.80
44117;DHT22;29781;49.480;8.512;2023-06-04T08:21:45;20.40;88.30
44117;DHT22;29781;49.480;8.512;2023-06-04T08:24:11;20.50;87.10
44117;DHT22;29781;49.480;8.512;2023-06-04T08:26:36;20.40;87.60
44117;DHT22;29781;49.480;8.512;2023-06-04T08:29:03;20.30;87.50
44117;DHT22;29781;49.480;8.512;2023-06-04T08:31:32;20.30;88.70
44117;DHT22;29781;49.480;8.512;2023-06-04T08:33:57;20.20;88.80
44117;DHT22;29781;49.480;8.512;2023-06-04T08:36:23;20.40;88.90
44117;DHT22;29781;49.480;8.512;2023-06-04T08:38:49;20.70;88.90
44117;DHT22;29781;49.480;8.512;2023-06-04T08:41:30;20.90;87.90
44117;DHT22;29781;49.480;8.512;2023-06-04T08:43:57;21.00;88.60
44117;DHT22;29781;49.480;8.512;2023-06-04T08:46:23;21.10;88.70
44117;DHT22;29781;49.480;8.512;2023-06-04T08:48:50;21.20;87.90
44117;DHT22;29781;49.480;8.512;2023-06-04T08:51:16;21.10;86.10
44117;DHT22;29781;49.480;8.512;2023-06-04T08:53:42;21.30;87.70
44117;DHT22;29781;49.480;8.512;2023-06-04T08:56:08;21.30;86.80
44117;DHT22;29781;49.480;8.512;2023-06-04T08:58:36;21.90;86.60
44117;DHT22;29781;49.480;8.512;2023-06-04T09:01:02;22.60;84.30
44117;DHT22;29781;49.480;8.512;2023-06-04T09:03:29;22.90;84.40
44117;DHT22;29781;49.480;8.512;2023-06-04T09:05:58;22.90;84.40
44117;DHT22;29781;49.480;8.512;2023-06-04T09:08:26;23.10;83.80
44117;DHT22;29781;49.480;8.512;2023-06-04T09:10:54;23.30;82.80
44117;DHT22;29781;49.480;8.512;2023-06-04T09:13:22;23.40;85.10
44117;DHT22;29781;49.480;8.512;2023-06-04T09:16:03;23.30;82.70
44117;DHT22;29781;49.480;8.512;2023-06-04T09:18:29;22.60;83.20
44117;DHT22;29781;49.480;8.512;2023-06-04T09:21:21;22.90;83.00
44117;DHT22;29781;49.480;8.512;2023-06-04T09:23:47;23.00;82.70
44117;DHT22;29781;49.480;8.512;2023-06-04T09:26:13;22.60;83.80
44117;DHT22;29781;49.480;8.512;2023-06-04T09:28:42;22.50;84.50
44117;DHT22;29781;49.480;8.512;2023-06-04T09:31:14;22.60;83.90
44117;DHT22;29781;49.480;8.512;2023-06-04T09:33:48;22.50;82.80
44117;DHT22;29781;49.480;8.512;2023-06-04T09:36:30;22.60;83.60
44117;DHT22;29781;49.480;8.512;2023-06-04T09:38:56;22.70;82.20
44117;DHT22;29781;49.480;8.512;2023-06-04T09:41:22;22.80;82.40
44117;DHT22;29781;49.480;8.512;2023-06-04T09:43:47;23.30;82.50
44117;DHT22;29781;49.480;8.512;2023-06-04T09:46:16;23.40;79.70
44117;DHT22;29781;49.480;8.512;2023-06-04T09:48:43;23.60;80.40
44117;DHT22;29781;49.480;8.512;2023-06-04T09:51:10;23.50;80.80
44117;DHT22;29781;49.480;8.512;2023-06-04T09:53:37;23.90;81.30
44117;DHT22;29781;49.480;8.512;2023-06-04T09:56:04;24.20;83.60
44117;DHT22;29781;49.480;8.512;2023-06-04T09:58:30;24.60;78.20
44117;DHT22;29781;49.480;8.512;2023-06-04T10:00:57;24.60;77.00
44117;DHT22;29781;49.480;8.512;2023-06-04T10:03:30;24.30;76.40
44117;DHT22;29781;49.480;8.512;2023-06-04T10:05:57;24.10;77.10
44117;DHT22;29781;49.480;8.512;2023-06-04T10:08:24;23.60;76.10
44117;DHT22;29781;49.480;8.512;2023-06-04T10:10:51;23.30;75.60
44117;DHT22;29781;49.480;8.512;2023-06-04T10:13:19;23.00;76.00
44117;DHT22;29781;49.480;8.512;2023-06-04T10:15:48;22.90;74.90
44117;DHT22;29781;49.480;8.512;2023-06-04T10:18:15;22.80;75.40
44117;DHT22;29781;49.480;8.512;2023-06-04T10:20:41;22.80;75.00
44117;DHT22;29781;49.480;8.512;2023-06-04T10:23:07;23.00;76.30
44117;DHT22;29781;49.480;8.512;2023-06-04T10:25:37;23.30;74.50
44117;DHT22;29781;49.480;8.512;2023-06-04T10:28:03;23.60;74.60
44117;DHT22;29781;49.480;8.512;2023-06-04T10:30:30;23.70;75.50
44117;DHT22;29781;49.480;8.512;2023-06-04T10:32:58;23.70;74.50
44117;DHT22;29781;49.480;8.512;2023-06-04T10:38:10;23.50;73.80
44117;DHT22;29781;49.480;8.512;2023-06-04T10:40:37;23.70;73.40
44117;DHT22;29781;49.480;8.512;2023-06-04T10:43:08;23.70;73.30
44117;DHT22;29781;49.480;8.512;2023-06-04T10:45:34;23.70;73.40
44117;DHT22;29781;49.480;8.512;2023-06-04T10:48:01;23.80;74.00
44117;DHT22;29781;49.480;8.512;2023-06-04T10:50:27;23.80;73.80
44117;DHT22;29781;49.480;8.512;2023-06-04T10:52:54;23.60;72.70
44117;DHT22;29781;49.480;8.512;2023-06-04T10:55:21;23.60;73.80
44117;DHT22;29781;49.480;8.512;2023-06-04T10:58:00;23.60;71.50
44117;DHT22;29781;49.480;8.512;2023-06-04T11:00:40;23.50;72.90
44117;DHT22;29781;49.480;8.512;2023-06-04T11:03:07;23.80;74.00
44117;DHT22;29781;49.480;8.512;2023-06-04T11:05:37;24.00;74.00
44117;DHT22;29781;49.480;8.512;2023-06-04T11:08:04;23.70;72.00
44117;DHT22;29781;49.480;8.512;2023-06-04T11:10:34;23.80;74.00
44117;DHT22;29781;49.480;8.512;2023-06-04T11:13:01;23.80;72.70
44117;DHT22;29781;49.480;8.512;2023-06-04T11:15:27;23.60;72.50
44117;DHT22;29781;49.480;8.512;2023-06-04T11:18:02;23.50;73.40
44117;DHT22;29781;49.480;8.512;2023-06-04T11:20:27;23.70;73.00
44117;DHT22;29781;49.480;8.512;2023-06-04T11:22:54;23.70;72.50
44117;DHT22;29781;49.480;8.512;2023-06-04T11:25:21;23.70;72.80
44117;DHT22;29781;49.480;8.512;2023-06-04T11:27:48;23.80;71.60
44117;DHT22;29781;49.480;8.512;2023-06-04T11:30:14;23.80;72.40
44117;DHT22;29781;49.480;8.512;2023-06-04T11:32:40;23.90;72.40
44117;DHT22;29781;49.480;8.512;2023-06-04T11:35:06;23.80;72.50
44117;DHT22;29781;49.480;8.512;2023-06-04T11:37:32;23.80;71.50
44117;DHT22;29781;49.480;8.512;2023-06-04T11:39:58;23.90;71.70
44117;DHT22;29781;49.480;8.512;2023-06-04T11:42:27;24.00;73.10
44117;DHT22;29781;49.480;8.512;2023-06-04T11:44:56;24.20;72.50
44117;DHT22;29781;49.480;8.512;2023-06-04T11:47:23;24.20;71.80
44117;DHT22;29781;49.480;8.512;2023-06-04T11:49:54;24.10;71.20
44117;DHT22;29781;49.480;8.512;2023-06-04T11:52:20;24.10;72.20
44117;DHT22;29781;49.480;8.512;2023-06-04T11:54:46;23.80;71.30
44117;DHT22;29781;49.480;8.512;2023-06-04T11:57:12;23.90;73.50
44117;DHT22;29781;49.480;8.512;2023-06-04T11:59:38;24.10;70.70
44117;DHT22;29781;49.480;8.512;2023-06-04T12:02:04;24.20;72.60
44117;DHT22;29781;49.480;8.512;2023-06-04T12:04:31;24.30;70.70
44117;DHT22;29781;49.480;8.512;2023-06-04T12:07:01;24.10;71.90
44117;DHT22;29781;49.480;8.512;2023-06-04T12:09:29;24.00;71.60
44117;DHT22;29781;49.480;8.512;2023-06-04T12:12:03;24.10;73.60
44117;DHT22;29781;49.480;8.512;2023-06-04T12:14:29;24.30;70.70
44117;DHT22;29781;49.480;8.512;2023-06-04T12:19:21;24.40;72.60
44117;DHT22;29781;49.480;8.512;2023-06-04T12:21:46;24.40;71.10
44117;DHT22;29781;49.480;8.512;2023-06-04T12:24:14;24.30;70.20
44117;DHT22;29781;49.480;8.512;2023-06-04T12:26:41;24.20;71.40
44117;DHT22;29781;49.480;8.512;2023-06-04T12:29:11;24.20;71.00
44117;DHT22;29781;49.480;8.512;2023-06-04T12:31:38;24.20;71.90
44117;DHT22;29781;49.480;8.512;2023-06-04T12:34:03;24.30;70.30
44117;DHT22;29781;49.480;8.512;2023-06-04T12:36:29;24.10;70.40
44117;DHT22;29781;49.480;8.512;2023-06-04T12:38:59;24.00;70.90
44117;DHT22;29781;49.480;8.512;2023-06-04T12:41:26;23.90;71.10
44117;DHT22;29781;49.480;8.512;2023-06-04T12:43:53;24.10;71.60
44117;DHT22;29781;49.480;8.512;2023-06-04T12:46:18;24.20;70.60
44117;DHT22;29781;49.480;8.512;2023-06-04T12:48:44;24.30;70.80
44117;DHT22;29781;49.480;8.512;2023-06-04T12:51:11;24.40;71.30
44117;DHT22;29781;49.480;8.512;2023-06-04T12:53:43;24.50;70.70
44117;DHT22;29781;49.480;8.512;2023-06-04T12:56:09;24.50;70.20
44117;DHT22;29781;49.480;8.512;2023-06-04T12:58:35;24.40;69.60
44117;DHT22;29781;49.480;8.512;2023-06-04T13:01:01;24.50;70.20
44117;DHT22;29781;49.480;8.512;2023-06-04T13:03:26;24.60;71.20
44117;DHT22;29781;49.480;8.512;2023-06-04T13:05:53;24.70;70.80
44117;DHT22;29781;49.480;8.512;2023-06-04T13:08:21;24.70;70.90
44117;DHT22;29781;49.480;8.512;2023-06-04T13:10:47;24.50;69.60
44117;DHT22;29781;49.480;8.512;2023-06-04T13:13:14;24.40;69.40
44117;DHT22;29781;49.480;8.512;2023-06-04T13:15:44;24.50;69.40
44117;DHT22;29781;49.480;8.512;2023-06-04T13:18:10;24.60;69.80
44117;DHT22;29781;49.480;8.512;2023-06-04T13:20:37;24.70;70.30
44117;DHT22;29781;49.480;8.512;2023-06-04T13:23:03;24.80;68.90
44117;DHT22;29781;49.480;8.512;2023-06-04T13:25:28;24.70;70.10
44117;DHT22;29781;49.480;8.512;2023-06-04T13:27:54;24.80;69.50
44117;DHT22;29781;49.480;8.512;2023-06-04T13:30:21;24.70;68.70
44117;DHT22;29781;49.480;8.512;2023-06-04T13:32:47;24.60;69.50
44117;DHT22;29781;49.480;8.512;2023-06-04T13:35:12;24.60;68.40
44117;DHT22;29781;49.480;8.512;2023-06-04T13:37:38;24.60;67.80
44117;DHT22;29781;49.480;8.512;2023-06-04T13:40:04;24.60;67.80
44117;DHT22;29781;49.480;8.512;2023-06-04T13:42:30;24.70;68.40
44117;DHT22;29781;49.480;8.512;2023-06-04T13:44:55;24.80;67.70
44117;DHT22;29781;49.480;8.512;2023-06-04T13:47:21;24.80;68.50
44117;DHT22;29781;49.480;8.512;2023-06-04T13:49:47;24.90;67.10
44117;DHT22;29781;49.480;8.512;2023-06-04T13:52:12;24.90;67.50
44117;DHT22;29781;49.480;8.512;2023-06-04T13:54:38;24.80;68.00
44117;DHT22;29781;49.480;8.512;2023-06-04T13:57:04;24.80;67.60
44117;DHT22;29781;49.480;8.512;2023-06-04T13:59:29;24.70;66.20
44117;DHT22;29781;49.480;8.512;2023-06-04T14:01:56;24.70;66.80
44117;DHT22;29781;49.480;8.512;2023-06-04T14:04:22;24.90;67.10
44117;DHT22;29781;49.480;8.512;2023-06-04T14:06:47;25.00;68.00
44117;DHT22;29781;49.480;8.512;2023-06-04T14:09:13;25.00;66.30
44117;DHT22;29781;49.480;8.512;2023-06-04T14:11:39;24.80;65.50
44117;DHT22;29781;49.480;8.512;2023-06-04T14:14:04;24.90;65.80
44117;DHT22;29781;49.480;8.512;2023-06-04T14:16:30;24.80;65.10
44117;DHT22;29781;49.480;8.512;2023-06-04T14:18:56;24.60;64.30
44117;DHT22;29781;49.480;8.512;2023-06-04T14:21:21;24.40;65.00
44117;DHT22;29781;49.480;8.512;2023-06-04T14:23:47;24.60;65.70
44117;DHT22;29781;49.480;8.512;2023-06-04T14:26:14;24.90;66.40
44117;DHT22;29781;49.480;8.512;2023-06-04T14:28:42;25.00;65.90
44117;DHT22;29781;49.480;8.512;2023-06-04T14:31:07;25.10;66.20
44117;DHT22;29781;49.480;8.512;2023-06-04T14:33:33;25.20;65.60
44117;DHT22;29781;49.480;8.512;2023-06-04T14:36:00;25.20;64.30
44117;DHT22;29781;49.480;8.512;2023-06-04T14:38:26;25.10;65.50
44117;DHT22;29781;49.480;8.512;2023-06-04T14:40:52;25.10;65.50
44117;DHT22;29781;49.480;8.512;2023-06-04T14:43:17;25.10;65.20
44117;DHT22;29781;49.480;8.512;2023-06-04T14:45:43;25.10;64.70
44117;DHT22;29781;49.480;8.512;2023-06-04T14:48:08;25.10;64.90
44117;DHT22;29781;49.480;8.512;2023-06-04T14:50:34;25.00;63.50
44117;DHT22;29781;49.480;8.512;2023-06-04T14:53:00;25.00;64.60
44117;DHT22;29781;49.480;8.512;2023-06-04T14:55:26;25.20;65.50
44117;DHT22;29781;49.480;8.512;2023-06-04T14:57:52;25.30;64.30
44117;DHT22;29781;49.480;8.512;2023-06-04T15:00:17;25.20;64.00
44117;DHT22;29781;49.480;8.512;2023-06-04T15:02:43;25.30;64.60
44117;DHT22;29781;49.480;8.512;2023-06-04T15:05:09;25.30;65.00
44117;DHT22;29781;49.480;8.512;2023-06-04T15:07:35;25.40;65.70
44117;DHT22;29781;49.480;8.512;2023-06-04T15:10:03;25.50;64.40
44117;DHT22;29781;49.480;8.512;2023-06-04T15:12:31;25.50;65.10
44117;DHT22;29781;49.480;8.512;2023-06-04T15:14:58;25.40;65.10
44117;DHT22;29781;49.480;8.512;2023-06-04T15:17:24;25.30;66.30
44117;DHT22;29781;49.480;8.512;2023-06-04T15:19:49;25.40;65.40
44117;DHT22;29781;49.480;8.512;2023-06-04T15:22:15;25.50;66.40
44117;DHT22;29781;49.480;8.512;2023-06-04T15:24:42;25.50;64.30
44117;DHT22;29781;49.480;8.512;2023-06-04T15:27:08;25.40;64.10
44117;DHT22;29781;49.480;8.512;2023-06-04T15:29:34;25.30;65.20
44117;DHT22;29781;49.480;8.512;2023-06-04T15:31:59;25.30;65.60
44117;DHT22;29781;49.480;8.512;2023-06-04T15:34:25;25.30;64.80
44117;DHT22;29781;49.480;8.512;2023-06-04T15:36:50;25.10;64.00